sensor_id;sensor_type;location;lat;lon;timestamp;P1;durP1;ratioP1;P2;durP2;ratioP2
72273;SDS011;60208;48.692;8.948;2022-09-20T00:00:13;5.72;;;3.22;;
72273;SDS011;60208;48.692;8.948;2022-09-20T00:02:38;7.18;;;3.20;;
72273;SDS011;60208;48.692;8.948;2022-09-20T00:05:04;7.20;;;3.03;;
72273;SDS011;60208;48.692;8.948;2022-09-20T00:07:30;7.63;;;3.63;;
72273;SDS011;60208;48.692;8.948;2022-09-20T00:09:56;3.33;;;2.90;;
72273;SDS011;60208;48.692;8.948;2022-09-20T00:12:21;5.10;;;4.00;;
72273;SDS011;60208;48.692;8.948;2022-09-20T00:14:47;5.63;;;3.80;;
72273;SDS011;60208;48.692;8.948;2022-09-20T00:17:12;5.97;;;3.67;;
72273;SDS011;60208;48.692;8.948;2022-09-20T00:19:38;5.72;;;3.55;;
72273;SDS011;60208;48.692;8.948;2022-09-20T00:22:03;3.38;;;3.08;;
72273;SDS011;60208;48.692;8.948;2022-09-20T00:24:28;9.38;;;3.83;;
72273;SDS011;60208;48.692;8.948;2022-09-20T00:26:54;10.07;;;5.25;;
72273;SDS011;60208;48.692;8.948;2022-09-20T00:29:19;8.57;;;4.45;;
72273;SDS011;60208;48.692;8.948;2022-09-20T00:31:45;7.55;;;4.30;;
72273;SDS011;60208;48.692;8.948;2022-09-20T00:34:11;8.05;;;3.00;;
72273;SDS011;60208;48.692;8.948;2022-09-20T00:36:55;5.07;;;3.10;;
72273;SDS011;60208;48.692;8.948;2022-09-20T00:39:21;5.22;;;3.00;;
72273;SDS011;60208;48.692;8.948;2022-09-20T00:41:46;4.90;;;2.90;;
72273;SDS011;60208;48.692;8.948;2022-09-20T00:50:01;7.03;;;3.05;;
72273;SDS011;60208;48.692;8.948;2022-09-20T00:52:31;8.20;;;3.30;;
72273;SDS011;60208;48.692;8.948;2022-09-20T00:54:58;4.68;;;2.45;;
72273;SDS011;60208;48.692;8.948;2022-09-20T00:57:24;5.53;;;2.90;;
72273;SDS011;60208;48.692;8.948;2022-09-20T00:59:49;4.65;;;2.70;;
72273;SDS011;60208;48.692;8.948;2022-09-20T01:02:20;7.00;;;2.83;;
72273;SDS011;60208;48.692;8.948;2022-09-20T01:04:48;3.00;;;2.03;;
72273;SDS011;60208;48.692;8.948;2022-09-20T01:07:15;5.18;;;2.58;;
72273;SDS011;60208;48.692;8.948;2022-09-20T01:09:42;7.22;;;2.95;;
72273;SDS011;60208;48.692;8.948;2022-09-20T01:12:12;5.95;;;3.20;;
72273;SDS011;60208;48.692;8.948;2022-09-20T01:14:39;6.10;;;3.03;;
72273;SDS011;60208;48.692;8.948;2022-09-20T01:17:06;4.40;;;2.92;;
72273;SDS011;60208;48.692;8.948;2022-09-20T01:22:20;4.32;;;2.78;;
72273;SDS011;60208;48.692;8.948;2022-09-20T01:25:08;5.72;;;2.90;;
72273;SDS011;60208;48.692;8.948;2022-09-20T01:27:47;4.35;;;2.85;;
72273;SDS011;60208;48.692;8.948;2022-09-20T01:30:15;7.53;;;3.03;;
72273;SDS011;60208;48.692;8.948;2022-09-20T01:35:33;6.03;;;2.90;;
72273;SDS011;60208;48.692;8.948;2022-09-20T01:38:10;4.80;;;2.50;;
72273;SDS011;60208;48.692;8.948;2022-09-20T01:46:31;6.15;;;2.65;;
72273;SDS011;60208;48.692;8.948;2022-09-20T01:49:08;3.78;;;2.85;;
72273;SDS011;60208;48.692;8.948;2022-09-20T02:02:42;5.15;;;2.72;;
72273;SDS011;60208;48.692;8.948;2022-09-20T02:10:56;5.80;;;2.63;;
72273;SDS011;60208;48.692;8.948;2022-09-20T02:21:03;4.57;;;2.55;;
72273;SDS011;60208;48.692;8.948;2022-09-20T02:23:40;4.28;;;2.35;;
72273;SDS011;60208;48.692;8.948;2022-09-20T02:28:57;10.18;;;4.68;;
72273;SDS011;60208;48.692;8.948;2022-09-20T02:39:48;6.95;;;3.40;;
72273;SDS011;60208;48.692;8.948;2022-09-20T02:42:28;9.98;;;3.63;;
72273;SDS011;60208;48.692;8.948;2022-09-20T03:06:13;5.00;;;3.70;;
72273;SDS011;60208;48.692;8.948;2022-09-20T03:11:50;7.75;;;3.53;;
72273;SDS011;60208;48.692;8.948;2022-09-20T03:14:56;7.28;;;3.45;;
72273;SDS011;60208;48.692;8.948;2022-09-20T03:41:30;3.35;;;2.17;;
72273;SDS011;60208;48.692;8.948;2022-09-20T03:46:45;7.85;;;2.75;;
72273;SDS011;60208;48.692;8.948;2022-09-20T03:58:04;5.15;;;2.55;;
72273;SDS011;60208;48.692;8.948;2022-09-20T04:03:27;5.07;;;2.80;;
72273;SDS011;60208;48.692;8.948;2022-09-20T04:08:57;6.00;;;2.28;;
72273;SDS011;60208;48.692;8.948;2022-09-20T04:12:20;5.35;;;2.65;;
72273;SDS011;60208;48.692;8.948;2022-09-20T04:17:48;5.20;;;2.55;;
72273;SDS011;60208;48.692;8.948;2022-09-20T04:22:56;6.43;;;2.70;;
72273;SDS011;60208;48.692;8.948;2022-09-20T04:25:37;2.60;;;2.20;;
72273;SDS011;60208;48.692;8.948;2022-09-20T04:28:11;3.90;;;2.42;;
72273;SDS011;60208;48.692;8.948;2022-09-20T04:30:40;4.78;;;2.50;;
72273;SDS011;60208;48.692;8.948;2022-09-20T04:35:40;7.40;;;2.50;;
72273;SDS011;60208;48.692;8.948;2022-09-20T04:38:30;4.75;;;2.47;;
72273;SDS011;60208;48.692;8.948;2022-09-20T04:52:24;6.22;;;3.53;;
72273;SDS011;60208;48.692;8.948;2022-09-20T04:55:28;4.10;;;2.63;;
72273;SDS011;60208;48.692;8.948;2022-09-20T05:09:22;4.53;;;3.10;;
72273;SDS011;60208;48.692;8.948;2022-09-20T05:17:43;8.45;;;3.78;;
72273;SDS011;60208;48.692;8.948;2022-09-20T05:31:25;3.13;;;2.05;;
72273;SDS011;60208;48.692;8.948;2022-09-20T05:34:17;7.57;;;2.60;;
72273;SDS011;60208;48.692;8.948;2022-09-20T05:36:58;5.07;;;2.28;;
72273;SDS011;60208;48.692;8.948;2022-09-20T05:39:33;6.20;;;2.42;;
72273;SDS011;60208;48.692;8.948;2022-09-20T05:58:21;8.07;;;4.15;;
72273;SDS011;60208;48.692;8.948;2022-09-20T06:00:49;6.68;;;2.80;;
72273;SDS011;60208;48.692;8.948;2022-09-20T06:17:15;5.78;;;3.28;;
72273;SDS011;60208;48.692;8.948;2022-09-20T06:20:07;5.60;;;3.15;;
72273;SDS011;60208;48.692;8.948;2022-09-20T06:22:41;6.93;;;2.95;;
72273;SDS011;60208;48.692;8.948;2022-09-20T06:27:41;8.05;;;3.30;;
72273;SDS011;60208;48.692;8.948;2022-09-20T06:30:43;6.03;;;3.15;;
72273;SDS011;60208;48.692;8.948;2022-09-20T06:35:34;5.18;;;2.83;;
72273;SDS011;60208;48.692;8.948;2022-09-20T06:40:52;6.50;;;3.22;;
72273;SDS011;60208;48.692;8.948;2022-09-20T06:43:43;6.13;;;3.70;;
72273;SDS011;60208;48.692;8.948;2022-09-20T06:46:09;5.93;;;4.03;;
72273;SDS011;60208;48.692;8.948;2022-09-20T06:48:35;5.97;;;3.60;;
72273;SDS011;60208;48.692;8.948;2022-09-20T06:51:04;7.10;;;3.90;;
72273;SDS011;60208;48.692;8.948;2022-09-20T06:53:31;6.82;;;4.10;;
72273;SDS011;60208;48.692;8.948;2022-09-20T06:55:57;5.88;;;3.88;;
72273;SDS011;60208;48.692;8.948;2022-09-20T06:58:23;7.45;;;4.75;;
72273;SDS011;60208;48.692;8.948;2022-09-20T07:00:49;5.82;;;3.83;;
72273;SDS011;60208;48.692;8.948;2022-09-20T07:03:14;5.07;;;3.10;;
72273;SDS011;60208;48.692;8.948;2022-09-20T07:05:40;6.07;;;3.30;;
72273;SDS011;60208;48.692;8.948;2022-09-20T07:08:05;5.80;;;2.95;;
72273;SDS011;60208;48.692;8.948;2022-09-20T07:10:31;5.90;;;3.05;;
72273;SDS011;60208;48.692;8.948;2022-09-20T07:12:58;7.95;;;3.03;;
72273;SDS011;60208;48.692;8.948;2022-09-20T07:15:25;3.85;;;2.60;;
72273;SDS011;60208;48.692;8.948;2022-09-20T07:17:53;7.20;;;4.43;;
72273;SDS011;60208;48.692;8.948;2022-09-20T07:20:19;28.13;;;16.70;;
72273;SDS011;60208;48.692;8.948;2022-09-20T07:22:45;8.60;;;3.30;;
72273;SDS011;60208;48.692;8.948;2022-09-20T07:25:14;5.75;;;2.88;;
72273;SDS011;60208;48.692;8.948;2022-09-20T07:27:40;9.55;;;3.40;;
72273;SDS011;60208;48.692;8.948;2022-09-20T07:30:06;8.07;;;3.30;;
72273;SDS011;60208;48.692;8.948;2022-09-20T07:32:32;10.43;;;3.90;;
72273;SDS011;60208;48.692;8.948;2022-09-20T07:34:57;10.45;;;3.38;;
72273;SDS011;60208;48.692;8.948;2022-09-20T07:37:23;8.90;;;4.00;;
72273;SDS011;60208;48.692;8.948;2022-09-20T07:39:48;8.02;;;4.05;;
72273;SDS011;60208;48.692;8.948;2022-09-20T07:42:14;10.02;;;2.80;;
72273;SDS011;60208;48.692;8.948;2022-09-20T07:44:39;9.65;;;3.00;;
72273;SDS011;60208;48.692;8.948;2022-09-20T07:47:06;5.15;;;1.98;;
72273;SDS011;60208;48.692;8.948;2022-09-20T07:49:33;5.82;;;2.17;;
72273;SDS011;60208;48.692;8.948;2022-09-20T07:51:58;4.97;;;2.10;;
72273;SDS011;60208;48.692;8.948;2022-09-20T07:54:24;8.35;;;2.30;;
72273;SDS011;60208;48.692;8.948;2022-09-20T07:56:51;9.32;;;1.83;;
72273;SDS011;60208;48.692;8.948;2022-09-20T07:59:16;7.93;;;2.00;;
72273;SDS011;60208;48.692;8.948;2022-09-20T08:01:42;8.88;;;3.28;;
72273;SDS011;60208;48.692;8.948;2022-09-20T08:04:08;9.45;;;2.50;;
72273;SDS011;60208;48.692;8.948;2022-09-20T08:06:37;10.43;;;2.40;;
72273;SDS011;60208;48.692;8.948;2022-09-20T08:09:04;10.60;;;3.03;;
72273;SDS011;60208;48.692;8.948;2022-09-20T08:11:30;9.52;;;2.40;;
72273;SDS011;60208;48.692;8.948;2022-09-20T08:13:56;7.97;;;2.80;;
72273;SDS011;60208;48.692;8.948;2022-09-20T08:16:24;9.40;;;2.25;;
72273;SDS011;60208;48.692;8.948;2022-09-20T08:18:54;10.75;;;2.35;;
72273;SDS011;60208;48.692;8.948;2022-09-20T08:21:24;7.80;;;2.20;;
72273;SDS011;60208;48.692;8.948;2022-09-20T08:23:51;9.77;;;2.42;;
72273;SDS011;60208;48.692;8.948;2022-09-20T08:26:18;9.82;;;2.67;;
72273;SDS011;60208;48.692;8.948;2022-09-20T08:28:45;7.30;;;2.40;;
72273;SDS011;60208;48.692;8.948;2022-09-20T08:31:14;8.65;;;2.25;;
72273;SDS011;60208;48.692;8.948;2022-09-20T08:33:43;6.47;;;1.98;;
72273;SDS011;60208;48.692;8.948;2022-09-20T08:36:11;5.50;;;1.95;;
72273;SDS011;60208;48.692;8.948;2022-09-20T08:38:38;9.70;;;2.33;;
72273;SDS011;60208;48.692;8.948;2022-09-20T08:41:04;6.75;;;2.00;;
72273;SDS011;60208;48.692;8.948;2022-09-20T08:43:36;7.07;;;2.03;;
72273;SDS011;60208;48.692;8.948;2022-09-20T08:46:03;4.65;;;1.70;;
72273;SDS011;60208;48.692;8.948;2022-09-20T08:48:31;7.45;;;1.90;;
72273;SDS011;60208;48.692;8.948;2022-09-20T08:50:58;6.18;;;1.92;;
72273;SDS011;60208;48.692;8.948;2022-09-20T08:53:24;12.18;;;2.30;;
72273;SDS011;60208;48.692;8.948;2022-09-20T08:55:51;11.02;;;1.90;;
72273;SDS011;60208;48.692;8.948;2022-09-20T08:58:17;7.93;;;2.30;;
72273;SDS011;60208;48.692;8.948;2022-09-20T09:00:44;8.65;;;2.30;;
72273;SDS011;60208;48.692;8.948;2022-09-20T09:03:11;7.57;;;2.00;;
72273;SDS011;60208;48.692;8.948;2022-09-20T09:08:11;4.45;;;1.50;;
72273;SDS011;60208;48.692;8.948;2022-09-20T09:10:40;8.18;;;1.70;;
72273;SDS011;60208;48.692;8.948;2022-09-20T09:13:09;8.65;;;1.83;;
72273;SDS011;60208;48.692;8.948;2022-09-20T09:15:40;6.65;;;1.50;;
72273;SDS011;60208;48.692;8.948;2022-09-20T09:18:08;6.50;;;1.23;;
72273;SDS011;60208;48.692;8.948;2022-09-20T09:20:41;4.60;;;1.27;;
72273;SDS011;60208;48.692;8.948;2022-09-20T09:23:25;7.35;;;1.65;;
72273;SDS011;60208;48.692;8.948;2022-09-20T09:25:54;5.90;;;1.40;;
72273;SDS011;60208;48.692;8.948;2022-09-20T09:28:22;5.22;;;1.10;;
72273;SDS011;60208;48.692;8.948;2022-09-20T09:30:48;3.92;;;1.10;;
72273;SDS011;60208;48.692;8.948;2022-09-20T09:36:33;4.47;;;1.15;;
72273;SDS011;60208;48.692;8.948;2022-09-20T09:38:47;10.60;;;2.85;;
72273;SDS011;60208;48.692;8.948;2022-09-20T09:41:29;8.73;;;1.90;;
72273;SDS011;60208;48.692;8.948;2022-09-20T09:44:06;11.77;;;1.60;;
72273;SDS011;60208;48.692;8.948;2022-09-20T09:46:40;9.90;;;1.25;;
72273;SDS011;60208;48.692;8.948;2022-09-20T09:54:26;4.40;;;1.10;;
72273;SDS011;60208;48.692;8.948;2022-09-20T09:59:44;4.45;;;1.15;;
72273;SDS011;60208;48.692;8.948;2022-09-20T10:02:38;3.00;;;1.02;;
72273;SDS011;60208;48.692;8.948;2022-09-20T10:07:41;5.47;;;1.17;;
72273;SDS011;60208;48.692;8.948;2022-09-20T10:10:20;2.40;;;1.00;;
72273;SDS011;60208;48.692;8.948;2022-09-20T10:13:02;6.38;;;1.38;;
72273;SDS011;60208;48.692;8.948;2022-09-20T10:36:53;6.85;;;1.23;;
72273;SDS011;60208;48.692;8.948;2022-09-20T10:39:38;5.78;;;1.10;;
72273;SDS011;60208;48.692;8.948;2022-09-20T10:58:49;6.47;;;1.83;;
72273;SDS011;60208;48.692;8.948;2022-09-20T11:06:50;11.73;;;2.15;;
72273;SDS011;60208;48.692;8.948;2022-09-20T11:09:38;10.48;;;1.50;;
72273;SDS011;60208;48.692;8.948;2022-09-20T11:12:14;9.20;;;1.48;;
72273;SDS011;60208;48.692;8.948;2022-09-20T11:14:56;5.93;;;1.40;;
72273;SDS011;60208;48.692;8.948;2022-09-20T11:17:29;8.35;;;1.75;;
72273;SDS011;60208;48.692;8.948;2022-09-20T11:19:59;4.40;;;1.30;;
72273;SDS011;60208;48.692;8.948;2022-09-20T11:25:24;6.72;;;1.20;;
72273;SDS011;60208;48.692;8.948;2022-09-20T11:28:00;6.40;;;1.50;;
72273;SDS011;60208;48.692;8.948;2022-09-20T11:30:28;4.18;;;1.10;;
72273;SDS011;60208;48.692;8.948;2022-09-20T11:41:14;4.30;;;1.00;;
72273;SDS011;60208;48.692;8.948;2022-09-20T11:43:43;7.32;;;1.20;;
72273;SDS011;60208;48.692;8.948;2022-09-20T11:46:17;2.50;;;1.00;;
72273;SDS011;60208;48.692;8.948;2022-09-20T11:48:46;7.18;;;1.08;;
72273;SDS011;60208;48.692;8.948;2022-09-20T11:56:22;9.88;;;1.33;;
72273;SDS011;60208;48.692;8.948;2022-09-20T11:58:53;4.85;;;1.15;;
72273;SDS011;60208;48.692;8.948;2022-09-20T12:04:01;7.95;;;1.48;;
72273;SDS011;60208;48.692;8.948;2022-09-20T12:06:29;7.05;;;3.33;;
72273;SDS011;60208;48.692;8.948;2022-09-20T12:08:58;5.88;;;1.30;;
72273;SDS011;60208;48.692;8.948;2022-09-20T12:11:32;5.15;;;1.38;;
72273;SDS011;60208;48.692;8.948;2022-09-20T12:14:03;8.85;;;1.25;;
72273;SDS011;60208;48.692;8.948;2022-09-20T12:16:34;3.95;;;1.15;;
72273;SDS011;60208;48.692;8.948;2022-09-20T12:19:09;5.50;;;1.10;;
72273;SDS011;60208;48.692;8.948;2022-09-20T12:24:23;4.72;;;0.82;;
72273;SDS011;60208;48.692;8.948;2022-09-20T12:26:57;3.40;;;0.93;;
72273;SDS011;60208;48.692;8.948;2022-09-20T12:31:52;1.63;;;0.70;;
72273;SDS011;60208;48.692;8.948;2022-09-20T12:55:10;1.20;;;0.60;;
72273;SDS011;60208;48.692;8.948;2022-09-20T12:57:37;1.60;;;0.70;;
72273;SDS011;60208;48.692;8.948;2022-09-20T13:00:04;2.78;;;0.80;;
72273;SDS011;60208;48.692;8.948;2022-09-20T13:05:35;1.60;;;0.70;;
72273;SDS011;60208;48.692;8.948;2022-09-20T13:08:18;4.00;;;0.73;;
72273;SDS011;60208;48.692;8.948;2022-09-20T13:10:49;2.55;;;1.00;;
72273;SDS011;60208;48.692;8.948;2022-09-20T13:13:26;3.28;;;0.93;;
72273;SDS011;60208;48.692;8.948;2022-09-20T13:15:52;1.33;;;0.80;;
72273;SDS011;60208;48.692;8.948;2022-09-20T13:18:18;4.65;;;1.05;;
72273;SDS011;60208;48.692;8.948;2022-09-20T13:20:44;2.60;;;0.88;;
72273;SDS011;60208;48.692;8.948;2022-09-20T13:23:15;3.55;;;0.80;;
72273;SDS011;60208;48.692;8.948;2022-09-20T13:25:47;2.83;;;1.13;;
72273;SDS011;60208;48.692;8.948;2022-09-20T13:33:40;1.73;;;0.77;;
72273;SDS011;60208;48.692;8.948;2022-09-20T13:36:06;1.13;;;0.73;;
72273;SDS011;60208;48.692;8.948;2022-09-20T13:38:31;3.25;;;1.00;;
72273;SDS011;60208;48.692;8.948;2022-09-20T13:40:58;2.63;;;1.13;;
72273;SDS011;60208;48.692;8.948;2022-09-20T13:43:35;10.57;;;1.35;;
72273;SDS011;60208;48.692;8.948;2022-09-20T13:46:06;7.05;;;1.50;;
72273;SDS011;60208;48.692;8.948;2022-09-20T13:48:40;7.22;;;2.63;;
72273;SDS011;60208;48.692;8.948;2022-09-20T13:59:40;6.47;;;1.27;;
72273;SDS011;60208;48.692;8.948;2022-09-20T14:02:22;2.67;;;1.00;;
72273;SDS011;60208;48.692;8.948;2022-09-20T14:04:50;3.38;;;1.02;;
72273;SDS011;60208;48.692;8.948;2022-09-20T14:07:18;2.78;;;0.80;;
72273;SDS011;60208;48.692;8.948;2022-09-20T14:09:44;1.75;;;0.80;;
72273;SDS011;60208;48.692;8.948;2022-09-20T14:12:10;2.13;;;0.82;;
72273;SDS011;60208;48.692;8.948;2022-09-20T14:14:37;5.25;;;1.13;;
72273;SDS011;60208;48.692;8.948;2022-09-20T14:17:04;4.25;;;1.00;;
72273;SDS011;60208;48.692;8.948;2022-09-20T14:19:33;8.75;;;1.33;;
72273;SDS011;60208;48.692;8.948;2022-09-20T14:22:03;4.78;;;1.05;;
72273;SDS011;60208;48.692;8.948;2022-09-20T14:24:29;4.32;;;1.10;;
72273;SDS011;60208;48.692;8.948;2022-09-20T14:27:00;2.47;;;1.23;;
72273;SDS011;60208;48.692;8.948;2022-09-20T14:29:38;6.05;;;1.20;;
72273;SDS011;60208;48.692;8.948;2022-09-20T14:32:27;6.35;;;1.48;;
72273;SDS011;60208;48.692;8.948;2022-09-20T14:35:16;7.22;;;1.40;;
72273;SDS011;60208;48.692;8.948;2022-09-20T14:40:17;6.43;;;1.52;;
72273;SDS011;60208;48.692;8.948;2022-09-20T14:42:50;8.02;;;1.13;;
72273;SDS011;60208;48.692;8.948;2022-09-20T14:48:02;10.00;;;1.60;;
72273;SDS011;60208;48.692;8.948;2022-09-20T14:50:31;1.15;;;1.00;;
72273;SDS011;60208;48.692;8.948;2022-09-20T14:58:32;2.28;;;0.90;;
72273;SDS011;60208;48.692;8.948;2022-09-20T15:01:03;5.47;;;1.40;;
72273;SDS011;60208;48.692;8.948;2022-09-20T15:04:08;3.63;;;1.10;;
72273;SDS011;60208;48.692;8.948;2022-09-20T15:06:35;4.38;;;1.15;;
72273;SDS011;60208;48.692;8.948;2022-09-20T15:09:02;2.58;;;0.90;;
72273;SDS011;60208;48.692;8.948;2022-09-20T15:11:28;4.07;;;1.10;;
72273;SDS011;60208;48.692;8.948;2022-09-20T15:13:53;3.25;;;1.00;;
72273;SDS011;60208;48.692;8.948;2022-09-20T15:16:19;3.25;;;1.23;;
72273;SDS011;60208;48.692;8.948;2022-09-20T15:18:44;2.05;;;0.77;;
72273;SDS011;60208;48.692;8.948;2022-09-20T15:21:10;1.75;;;0.95;;
72273;SDS011;60208;48.692;8.948;2022-09-20T15:23:36;4.15;;;1.15;;
72273;SDS011;60208;48.692;8.948;2022-09-20T15:26:03;3.58;;;1.17;;
72273;SDS011;60208;48.692;8.948;2022-09-20T15:28:29;2.75;;;0.80;;
72273;SDS011;60208;48.692;8.948;2022-09-20T15:30:56;5.13;;;1.00;;
72273;SDS011;60208;48.692;8.948;2022-09-20T15:33:22;5.45;;;1.20;;
72273;SDS011;60208;48.692;8.948;2022-09-20T15:35:47;3.63;;;0.90;;
72273;SDS011;60208;48.692;8.948;2022-09-20T15:38:14;1.92;;;0.85;;
72273;SDS011;60208;48.692;8.948;2022-09-20T15:40:41;1.98;;;0.90;;
72273;SDS011;60208;48.692;8.948;2022-09-20T15:43:11;4.80;;;1.20;;
72273;SDS011;60208;48.692;8.948;2022-09-20T15:48:19;2.72;;;1.00;;
72273;SDS011;60208;48.692;8.948;2022-09-20T15:50:59;1.77;;;1.00;;
72273;SDS011;60208;48.692;8.948;2022-09-20T15:53:26;4.50;;;0.95;;
72273;SDS011;60208;48.692;8.948;2022-09-20T15:55:56;2.88;;;1.00;;
72273;SDS011;60208;48.692;8.948;2022-09-20T15:58:27;3.83;;;0.80;;
72273;SDS011;60208;48.692;8.948;2022-09-20T16:00:53;7.35;;;1.10;;
72273;SDS011;60208;48.692;8.948;2022-09-20T16:03:19;3.63;;;0.90;;
72273;SDS011;60208;48.692;8.948;2022-09-20T16:05:44;4.38;;;1.20;;
72273;SDS011;60208;48.692;8.948;2022-09-20T16:08:23;6.50;;;1.15;;
72273;SDS011;60208;48.692;8.948;2022-09-20T16:10:55;6.28;;;0.90;;
72273;SDS011;60208;48.692;8.948;2022-09-20T16:13:22;1.63;;;0.80;;
72273;SDS011;60208;48.692;8.948;2022-09-20T16:15:51;2.83;;;0.75;;
72273;SDS011;60208;48.692;8.948;2022-09-20T16:18:21;5.55;;;1.33;;
72273;SDS011;60208;48.692;8.948;2022-09-20T16:21:06;3.35;;;0.90;;
72273;SDS011;60208;48.692;8.948;2022-09-20T16:23:32;3.00;;;1.00;;
72273;SDS011;60208;48.692;8.948;2022-09-20T16:25:57;3.60;;;0.90;;
72273;SDS011;60208;48.692;8.948;2022-09-20T16:28:23;4.78;;;0.90;;
72273;SDS011;60208;48.692;8.948;2022-09-20T16:30:55;3.85;;;1.08;;
72273;SDS011;60208;48.692;8.948;2022-09-20T16:35:46;2.00;;;0.90;;
72273;SDS011;60208;48.692;8.948;2022-09-20T16:38:11;3.47;;;1.30;;
72273;SDS011;60208;48.692;8.948;2022-09-20T16:40:38;2.20;;;0.90;;
72273;SDS011;60208;48.692;8.948;2022-09-20T16:43:03;2.03;;;1.00;;
72273;SDS011;60208;48.692;8.948;2022-09-20T16:45:30;4.50;;;1.23;;
72273;SDS011;60208;48.692;8.948;2022-09-20T16:47:56;1.75;;;1.05;;
72273;SDS011;60208;48.692;8.948;2022-09-20T16:50:22;1.98;;;1.10;;
72273;SDS011;60208;48.692;8.948;2022-09-20T16:52:47;2.25;;;1.08;;
72273;SDS011;60208;48.692;8.948;2022-09-20T16:55:14;2.40;;;1.02;;
72273;SDS011;60208;48.692;8.948;2022-09-20T16:57:39;2.58;;;1.02;;
72273;SDS011;60208;48.692;8.948;2022-09-20T17:00:04;1.25;;;1.10;;
72273;SDS011;60208;48.692;8.948;2022-09-20T17:02:30;3.22;;;1.20;;
72273;SDS011;60208;48.692;8.948;2022-09-20T17:04:56;2.45;;;1.20;;
72273;SDS011;60208;48.692;8.948;2022-09-20T17:07:21;1.88;;;1.00;;
72273;SDS011;60208;48.692;8.948;2022-09-20T17:09:47;2.65;;;0.90;;
72273;SDS011;60208;48.692;8.948;2022-09-20T17:12:12;2.22;;;1.13;;
72273;SDS011;60208;48.692;8.948;2022-09-20T17:14:42;2.60;;;1.17;;
72273;SDS011;60208;48.692;8.948;2022-09-20T17:17:08;3.70;;;1.10;;
72273;SDS011;60208;48.692;8.948;2022-09-20T17:19:33;2.92;;;1.10;;
72273;SDS011;60208;48.692;8.948;2022-09-20T17:21:59;3.42;;;1.20;;
72273;SDS011;60208;48.692;8.948;2022-09-20T17:24:25;2.70;;;1.38;;
72273;SDS011;60208;48.692;8.948;2022-09-20T17:26:51;3.85;;;1.60;;
72273;SDS011;60208;48.692;8.948;2022-09-20T17:29:17;3.13;;;1.42;;
72273;SDS011;60208;48.692;8.948;2022-09-20T17:31:44;3.05;;;1.63;;
72273;SDS011;60208;48.692;8.948;2022-09-20T17:34:12;2.97;;;1.45;;
72273;SDS011;60208;48.692;8.948;2022-09-20T17:36:43;3.13;;;1.50;;
72273;SDS011;60208;48.692;8.948;2022-09-20T17:39:10;3.08;;;1.58;;
72273;SDS011;60208;48.692;8.948;2022-09-20T17:41:37;3.45;;;1.40;;
72273;SDS011;60208;48.692;8.948;2022-09-20T17:44:04;3.67;;;1.60;;
72273;SDS011;60208;48.692;8.948;2022-09-20T17:46:34;2.40;;;1.48;;
72273;SDS011;60208;48.692;8.948;2022-09-20T17:49:02;5.13;;;2.00;;
72273;SDS011;60208;48.692;8.948;2022-09-20T17:51:29;2.10;;;1.55;;
72273;SDS011;60208;48.692;8.948;2022-09-20T17:53:56;4.00;;;2.03;;
72273;SDS011;60208;48.692;8.948;2022-09-20T17:56:22;5.55;;;2.30;;
72273;SDS011;60208;48.692;8.948;2022-09-20T17:58:48;3.20;;;2.22;;
72273;SDS011;60208;48.692;8.948;2022-09-20T18:01:15;4.78;;;1.83;;
72273;SDS011;60208;48.692;8.948;2022-09-20T18:03:42;8.05;;;4.85;;
72273;SDS011;60208;48.692;8.948;2022-09-20T18:08:45;13.70;;;6.90;;
72273;SDS011;60208;48.692;8.948;2022-09-20T18:11:16;11.88;;;6.85;;
72273;SDS011;60208;48.692;8.948;2022-09-20T18:13:43;16.88;;;13.13;;
72273;SDS011;60208;48.692;8.948;2022-09-20T18:16:12;18.58;;;12.13;;
72273;SDS011;60208;48.692;8.948;2022-09-20T18:18:38;18.90;;;12.82;;
72273;SDS011;60208;48.692;8.948;2022-09-20T18:21:38;19.98;;;14.23;;
72273;SDS011;60208;48.692;8.948;2022-09-20T18:23:58;16.48;;;9.73;;
72273;SDS011;60208;48.692;8.948;2022-09-20T18:26:24;17.48;;;9.30;;
72273;SDS011;60208;48.692;8.948;2022-09-20T18:28:58;17.33;;;10.68;;
72273;SDS011;60208;48.692;8.948;2022-09-20T18:31:29;18.05;;;9.63;;
72273;SDS011;60208;48.692;8.948;2022-09-20T18:34:03;8.35;;;5.57;;
72273;SDS011;60208;48.692;8.948;2022-09-20T18:36:33;9.15;;;5.10;;
72273;SDS011;60208;48.692;8.948;2022-09-20T18:39:00;6.55;;;4.28;;
72273;SDS011;60208;48.692;8.948;2022-09-20T18:41:27;8.45;;;5.35;;
72273;SDS011;60208;48.692;8.948;2022-09-20T18:43:55;5.88;;;3.30;;
72273;SDS011;60208;48.692;8.948;2022-09-20T18:46:21;6.57;;;4.75;;
72273;SDS011;60208;48.692;8.948;2022-09-20T18:48:51;7.15;;;4.68;;
72273;SDS011;60208;48.692;8.948;2022-09-20T18:51:17;7.07;;;5.07;;
72273;SDS011;60208;48.692;8.948;2022-09-20T18:53:42;6.97;;;4.70;;
72273;SDS011;60208;48.692;8.948;2022-09-20T18:56:10;7.80;;;4.70;;
72273;SDS011;60208;48.692;8.948;2022-09-20T18:58:42;7.72;;;3.85;;
72273;SDS011;60208;48.692;8.948;2022-09-20T19:09:56;4.80;;;3.30;;
72273;SDS011;60208;48.692;8.948;2022-09-20T19:12:38;5.15;;;3.55;;
72273;SDS011;60208;48.692;8.948;2022-09-20T19:18:13;18.85;;;13.57;;
72273;SDS011;60208;48.692;8.948;2022-09-20T19:20:46;18.42;;;12.30;;
72273;SDS011;60208;48.692;8.948;2022-09-20T19:23:26;11.07;;;4.50;;
72273;SDS011;60208;48.692;8.948;2022-09-20T19:26:00;7.13;;;4.10;;
72273;SDS011;60208;48.692;8.948;2022-09-20T19:28:29;7.35;;;4.30;;
72273;SDS011;60208;48.692;8.948;2022-09-20T19:30:55;8.32;;;5.00;;
72273;SDS011;60208;48.692;8.948;2022-09-20T19:33:22;9.93;;;6.60;;
72273;SDS011;60208;48.692;8.948;2022-09-20T19:35:48;9.40;;;6.25;;
72273;SDS011;60208;48.692;8.948;2022-09-20T19:38:19;12.60;;;7.70;;
72273;SDS011;60208;48.692;8.948;2022-09-20T19:49:27;9.95;;;7.07;;
72273;SDS011;60208;48.692;8.948;2022-09-20T19:51:57;14.35;;;7.65;;
72273;SDS011;60208;48.692;8.948;2022-09-20T19:54:23;15.90;;;9.15;;
72273;SDS011;60208;48.692;8.948;2022-09-20T19:56:53;24.17;;;14.27;;
72273;SDS011;60208;48.692;8.948;2022-09-20T19:59:20;20.58;;;11.73;;
72273;SDS011;60208;48.692;8.948;2022-09-20T20:01:47;15.73;;;8.65;;
72273;SDS011;60208;48.692;8.948;2022-09-20T20:04:13;14.32;;;7.47;;
72273;SDS011;60208;48.692;8.948;2022-09-20T20:12:12;9.85;;;7.20;;
72273;SDS011;60208;48.692;8.948;2022-09-20T20:18:03;10.88;;;6.50;;
72273;SDS011;60208;48.692;8.948;2022-09-20T20:20:24;22.75;;;14.48;;
72273;SDS011;60208;48.692;8.948;2022-09-20T20:28:36;6.53;;;4.78;;
72273;SDS011;60208;48.692;8.948;2022-09-20T20:31:02;8.82;;;5.22;;
72273;SDS011;60208;48.692;8.948;2022-09-20T20:33:28;10.13;;;5.72;;
72273;SDS011;60208;48.692;8.948;2022-09-20T20:35:55;7.07;;;5.05;;
72273;SDS011;60208;48.692;8.948;2022-09-20T20:38:22;10.63;;;6.45;;
72273;SDS011;60208;48.692;8.948;2022-09-20T20:41:23;8.32;;;5.43;;
72273;SDS011;60208;48.692;8.948;2022-09-20T20:43:43;7.13;;;5.10;;
72273;SDS011;60208;48.692;8.948;2022-09-20T20:46:13;7.35;;;5.03;;
72273;SDS011;60208;48.692;8.948;2022-09-20T20:48:42;13.25;;;7.85;;
72273;SDS011;60208;48.692;8.948;2022-09-20T20:51:09;24.30;;;10.55;;
72273;SDS011;60208;48.692;8.948;2022-09-20T20:53:37;23.98;;;10.07;;
72273;SDS011;60208;48.692;8.948;2022-09-20T20:56:05;11.10;;;6.85;;
72273;SDS011;60208;48.692;8.948;2022-09-20T20:58:35;12.02;;;7.13;;
72273;SDS011;60208;48.692;8.948;2022-09-20T21:01:07;9.68;;;6.78;;
72273;SDS011;60208;48.692;8.948;2022-09-20T21:03:40;10.40;;;6.35;;
72273;SDS011;60208;48.692;8.948;2022-09-20T21:06:08;7.60;;;5.43;;
72273;SDS011;60208;48.692;8.948;2022-09-20T21:08:36;7.93;;;5.22;;
72273;SDS011;60208;48.692;8.948;2022-09-20T21:11:04;9.48;;;5.45;;
72273;SDS011;60208;48.692;8.948;2022-09-20T21:13:34;9.40;;;5.88;;
72273;SDS011;60208;48.692;8.948;2022-09-20T21:18:35;8.57;;;6.15;;
72273;SDS011;60208;48.692;8.948;2022-09-20T21:21:03;9.52;;;6.70;;
72273;SDS011;60208;48.692;8.948;2022-09-20T21:23:32;8.77;;;5.50;;